Terminal Aerodrome Forecast
Issued by NWS

Home | Current Version | Previous Version | Text Only | Print | Product List | Glossary On
Versions: 1 2 3 4 5 6 7 8 9 10 11 12
000
FTPQ31 PGUM 272334
TAFGUM
TAF

TAF
PTPN 272334Z 2800/2824 12006KT P6SM VCSH FEW018 SCT050 SCT130
      TEMPO 2800/2802 16005KT 5SM -SHRA BKN017 BKN050=

USA.gov is the U.S. government's official web portal to all federal, state and local government web resources and services.